Time;durP1;ratioP1;P1;durP2;ratioP2;P2;SDS_P1;SDS_P2;PMS_P1;PMS_P2;Temp;Humidity;BMP_temperature;BMP_pressure;BME280_temperature;BME280_humidity;BME280_pressure;Samples;Min_cycle;Max_cycle;Signal;HPM_P1;HPM_P2
2021/08/20 00:01:03;;;;;;;3.10;2.80;;;16.30;99.90;;;;;;4976145;28;20467;-76
2021/08/20 00:03:31;;;;;;;3.30;3.00;;;16.30;99.90;;;;;;4960426;28;20433;-76
2021/08/20 00:05:58;;;;;;;3.20;2.93;;;16.30;99.90;;;;;;4965252;28;20437;-77
2021/08/20 00:08:25;;;;;;;3.40;3.07;;;16.30;99.90;;;;;;4973884;28;20445;-76
2021/08/20 00:10:52;;;;;;;3.03;2.80;;;16.20;99.90;;;;;;4973720;28;20822;-76
2021/08/20 00:13:19;;;;;;;2.77;2.53;;;16.20;99.90;;;;;;4973870;28;20459;-76
2021/08/20 00:15:46;;;;;;;4.87;3.17;;;16.20;99.90;;;;;;4974738;28;20459;-77
2021/08/20 00:18:13;;;;;;;3.07;2.77;;;16.20;99.90;;;;;;4975557;28;20516;-77
2021/08/20 00:20:41;;;;;;;3.57;2.70;;;16.20;99.90;;;;;;4975060;28;20475;-77
2021/08/20 00:23:08;;;;;;;2.83;2.33;;;16.20;99.90;;;;;;4958639;28;20411;-77
2021/08/20 00:25:35;;;;;;;3.80;2.90;;;16.20;99.90;;;;;;4959714;28;20825;-76
2021/08/20 00:28:02;;;;;;;2.80;2.53;;;16.20;99.90;;;;;;4964842;28;20479;-77
2021/08/20 00:30:31;;;;;;;3.00;2.80;;;16.20;99.90;;;;;;4955878;28;20470;-77
2021/08/20 00:32:58;;;;;;;2.70;2.50;;;16.20;99.90;;;;;;4973435;28;20415;-77
2021/08/20 00:35:25;;;;;;;3.10;2.63;;;16.20;99.90;;;;;;4973407;28;20544;-75
2021/08/20 00:37:54;;;;;;;3.33;2.90;;;16.20;99.90;;;;;;4974414;28;20463;-76
2021/08/20 00:40:21;;;;;;;2.87;2.67;;;16.20;99.90;;;;;;4975848;28;20521;-76
2021/08/20 00:42:50;;;;;;;2.73;2.53;;;16.30;99.90;;;;;;4961761;28;20439;-77
2021/08/20 00:45:17;;;;;;;2.77;2.53;;;16.30;99.90;;;;;;4975536;28;20445;-77
2021/08/20 00:47:44;;;;;;;2.83;2.63;;;16.30;99.90;;;;;;4959795;28;20438;-76
2021/08/20 00:50:11;;;;;;;3.10;2.80;;;16.30;99.90;;;;;;4964875;28;20473;-76
2021/08/20 00:52:38;;;;;;;3.17;2.67;;;16.30;99.90;;;;;;4973115;28;20446;-76
2021/08/20 00:55:09;;;;;;;3.00;2.40;;;16.30;99.90;;;;;;4972656;28;20437;-76
2021/08/20 00:57:36;;;;;;;4.13;3.10;;;16.40;99.90;;;;;;4972961;28;20475;-76
2021/08/20 01:00:04;;;;;;;3.57;3.27;;;16.40;99.90;;;;;;4974015;28;20577;-77
2021/08/20 01:02:31;;;;;;;3.33;3.03;;;16.40;99.90;;;;;;4975160;28;20788;-76
2021/08/20 01:04:58;;;;;;;4.20;3.80;;;16.40;99.90;;;;;;4975202;28;20445;-76
2021/08/20 01:07:24;;;;;;;3.50;3.10;;;16.40;99.90;;;;;;4974172;28;20420;-77
2021/08/20 01:09:51;;;;;;;2.93;2.67;;;16.40;99.90;;;;;;4959119;28;20413;-76
2021/08/20 01:12:20;;;;;;;4.00;3.57;;;16.40;99.90;;;;;;4965057;28;20452;-75
2021/08/20 01:14:50;;;;;;;4.80;3.17;;;16.40;99.90;;;;;;4972803;28;20453;-76
2021/08/20 01:17:17;;;;;;;8.27;3.57;;;16.40;99.90;;;;;;4971439;28;20407;-76
2021/08/20 01:19:44;;;;;;;4.47;3.30;;;16.50;99.90;;;;;;4972727;28;20460;-76
2021/08/20 01:22:11;;;;;;;3.60;2.67;;;16.50;99.90;;;;;;4973958;28;20458;-76
2021/08/20 01:24:39;;;;;;;5.77;3.70;;;16.50;99.90;;;;;;4974679;28;20425;-75
2021/08/20 01:27:07;;;;;;;5.17;3.57;;;16.50;99.90;;;;;;4974780;28;20446;-76
2021/08/20 01:29:34;;;;;;;5.70;4.30;;;16.50;99.90;;;;;;4972095;28;20445;-75
2021/08/20 01:32:01;;;;;;;4.17;3.10;;;16.50;99.90;;;;;;4958850;28;20440;-77
2021/08/20 01:34:28;;;;;;;5.20;3.50;;;16.50;99.90;;;;;;4965562;28;20439;-76
2021/08/20 01:36:55;;;;;;;4.80;3.90;;;16.50;99.90;;;;;;4972575;28;20441;-74
2021/08/20 01:39:22;;;;;;;4.47;3.57;;;16.50;99.90;;;;;;4972173;28;20452;-74
2021/08/20 01:41:49;;;;;;;4.07;3.40;;;16.60;99.90;;;;;;4972671;28;20462;-75
2021/08/20 01:44:18;;;;;;;4.00;3.50;;;16.50;99.90;;;;;;4973648;28;20484;-74
2021/08/20 01:46:45;;;;;;;4.50;3.07;;;16.50;99.90;;;;;;4974697;28;20435;-75
2021/08/20 01:49:11;;;;;;;4.10;3.70;;;16.60;99.90;;;;;;4974723;28;20449;-74
2021/08/20 01:51:38;;;;;;;4.67;3.80;;;16.60;99.90;;;;;;4973020;28;20465;-75
2021/08/20 01:54:05;;;;;;;5.10;3.07;;;16.60;99.90;;;;;;4958684;28;20439;-74
2021/08/20 01:56:35;;;;;;;3.60;3.30;;;16.60;99.90;;;;;;4955658;28;20952;-75
2021/08/20 01:59:03;;;;;;;3.27;2.97;;;16.50;99.90;;;;;;4953018;28;20481;-74
2021/08/20 02:01:33;;;;;;;4.10;3.70;;;16.50;99.90;;;;;;4952828;29;20539;-74
2021/08/20 02:04:01;;;;;;;7.27;4.57;;;16.50;99.90;;;;;;4953173;29;20454;-74
2021/08/20 02:06:28;;;;;;;5.13;3.77;;;16.50;99.90;;;;;;4951543;28;20959;-74
2021/08/20 02:08:54;;;;;;;7.63;4.30;;;16.50;99.90;;;;;;4974594;28;20440;-74
2021/08/20 02:11:22;;;;;;;4.20;3.80;;;16.50;99.90;;;;;;4974496;28;20421;-74
2021/08/20 02:13:49;;;;;;;5.37;4.70;;;16.50;99.90;;;;;;4955265;28;20898;-74
2021/08/20 02:16:16;;;;;;;6.73;4.80;;;16.50;99.90;;;;;;4958804;28;20439;-74
2021/08/20 02:18:44;;;;;;;4.07;3.43;;;16.50;99.90;;;;;;4954957;28;20976;-74
2021/08/20 02:21:11;;;;;;;4.57;4.10;;;16.50;99.90;;;;;;4952656;29;20465;-74
2021/08/20 02:23:38;;;;;;;4.90;4.50;;;16.50;99.90;;;;;;4935876;28;20827;-75
2021/08/20 02:26:06;;;;;;;5.63;4.93;;;16.40;99.90;;;;;;4953073;28;20632;-74
2021/08/20 02:28:33;;;;;;;7.50;4.23;;;16.40;99.90;;;;;;4951722;28;20777;-74
2021/08/20 02:31:00;;;;;;;4.13;3.70;;;16.40;99.90;;;;;;4974134;28;20469;-74
2021/08/20 02:33:27;;;;;;;7.00;4.00;;;16.40;99.90;;;;;;4974232;28;20902;-74
2021/08/20 02:35:55;;;;;;;5.03;3.83;;;16.40;99.90;;;;;;4971666;28;20420;-74
2021/08/20 02:38:22;;;;;;;4.57;3.80;;;16.30;99.90;;;;;;4958451;28;20438;-75
2021/08/20 02:40:49;;;;;;;9.80;4.27;;;16.30;99.90;;;;;;4954519;28;20489;-74
2021/08/20 02:43:16;;;;;;;5.67;4.20;;;16.30;99.90;;;;;;4952635;28;20480;-74
2021/08/20 02:45:43;;;;;;;6.47;4.10;;;16.30;99.90;;;;;;4954626;28;20449;-74
2021/08/20 02:48:10;;;;;;;5.93;4.70;;;16.30;99.90;;;;;;4954903;29;20421;-74
2021/08/20 02:50:36;;;;;;;4.47;4.07;;;16.30;99.90;;;;;;4970813;28;20455;-74
2021/08/20 02:53:05;;;;;;;4.50;3.80;;;16.20;99.90;;;;;;4976912;28;20516;-74
2021/08/20 02:55:33;;;;;;;5.30;4.10;;;16.20;99.90;;;;;;4976414;28;20440;-74
2021/08/20 02:57:59;;;;;;;5.30;4.47;;;16.20;99.90;;;;;;4973684;28;20537;-74
2021/08/20 03:00:26;;;;;;;4.60;4.00;;;16.20;99.90;;;;;;4960142;28;20862;-74
2021/08/20 03:02:53;;;;;;;4.50;3.93;;;16.20;99.90;;;;;;4968133;28;20420;-74
2021/08/20 03:05:20;;;;;;;5.60;4.10;;;16.20;99.90;;;;;;4974010;28;20929;-75
2021/08/20 03:07:47;;;;;;;4.77;4.00;;;16.10;99.90;;;;;;4973741;28;20447;-74
2021/08/20 03:10:15;;;;;;;6.17;4.00;;;16.10;99.90;;;;;;4974018;28;20461;-74
2021/08/20 03:12:42;;;;;;;6.57;4.33;;;16.10;99.90;;;;;;4975320;28;20449;-74
2021/08/20 03:15:11;;;;;;;5.23;4.20;;;16.10;99.90;;;;;;4976075;28;20773;-74
2021/08/20 03:17:38;;;;;;;4.90;4.13;;;16.10;99.90;;;;;;4976042;28;20448;-75
2021/08/20 03:20:05;;;;;;;5.00;4.17;;;16.10;99.90;;;;;;4972808;28;20481;-74
2021/08/20 03:22:32;;;;;;;5.27;4.77;;;16.00;99.90;;;;;;4960040;28;20439;-75
2021/08/20 03:24:59;;;;;;;5.50;4.00;;;16.00;99.90;;;;;;4967923;28;20808;-75
2021/08/20 03:27:27;;;;;;;5.87;4.27;;;16.00;99.90;;;;;;4956375;28;20441;-74
2021/08/20 03:29:54;;;;;;;5.97;4.37;;;15.90;99.90;;;;;;4973733;28;21021;-75
2021/08/20 03:32:21;;;;;;;7.63;4.50;;;15.90;99.90;;;;;;4973790;28;20448;-74
2021/08/20 03:34:48;;;;;;;5.17;4.67;;;15.90;99.90;;;;;;4975511;28;20464;-74
2021/08/20 03:37:15;;;;;;;4.73;4.20;;;15.90;99.90;;;;;;4975708;28;20552;-75
2021/08/20 03:39:42;;;;;;;5.13;4.63;;;15.80;99.90;;;;;;4975655;28;20481;-75
2021/08/20 03:42:09;;;;;;;6.13;4.90;;;15.80;99.90;;;;;;4935533;28;1074747;-73
2021/08/20 03:44:37;;;;;;;6.83;5.40;;;15.80;99.90;;;;;;4943878;28;20767;-74
2021/08/20 03:47:05;;;;;;;6.90;5.03;;;15.80;99.90;;;;;;4968840;28;20441;-75
2021/08/20 03:49:32;;;;;;;6.20;4.67;;;15.80;99.90;;;;;;4974262;28;20456;-74
2021/08/20 03:51:59;;;;;;;7.30;4.40;;;15.80;99.90;;;;;;4974050;28;20500;-74
2021/08/20 03:54:26;;;;;;;7.00;5.00;;;15.80;99.90;;;;;;4957286;28;20675;-75
2021/08/20 03:56:53;;;;;;;4.73;4.33;;;15.80;99.90;;;;;;4975554;28;20553;-74
2021/08/20 03:59:19;;;;;;;5.20;4.70;;;15.80;99.90;;;;;;4976289;28;20458;-75
2021/08/20 04:01:48;;;;;;;8.20;4.90;;;15.80;99.90;;;;;;4976523;28;20457;-75
2021/08/20 04:04:15;;;;;;;7.27;4.83;;;15.80;99.90;;;;;;4972744;28;20437;-74
2021/08/20 04:06:42;;;;;;;5.70;4.63;;;15.80;99.90;;;;;;4960056;28;20949;-75
2021/08/20 04:09:08;;;;;;;6.20;4.80;;;15.80;99.90;;;;;;4956705;28;20911;-74
2021/08/20 04:11:35;;;;;;;5.70;4.77;;;15.80;99.90;;;;;;4954291;28;20445;-75
2021/08/20 04:14:03;;;;;;;5.47;4.57;;;15.80;99.90;;;;;;4954664;28;20951;-76
2021/08/20 04:16:30;;;;;;;6.07;5.40;;;15.80;99.90;;;;;;4937589;29;20472;-75
2021/08/20 04:18:58;;;;;;;5.50;5.00;;;15.80;99.90;;;;;;4954476;28;20468;-75
2021/08/20 04:21:25;;;;;;;6.13;4.90;;;15.80;99.90;;;;;;4975719;28;20499;-74
2021/08/20 04:23:52;;;;;;;6.23;5.20;;;15.90;99.90;;;;;;4975729;28;20956;-75
2021/08/20 04:26:19;;;;;;;12.70;5.90;;;15.90;99.90;;;;;;4971827;28;20890;-75
2021/08/20 04:28:49;;;;;;;7.20;4.80;;;15.90;99.90;;;;;;4960306;28;20525;-75
2021/08/20 04:31:16;;;;;;;6.07;5.40;;;15.90;99.90;;;;;;4955835;28;20457;-74
2021/08/20 04:33:43;;;;;;;5.70;4.40;;;15.90;99.90;;;;;;4954060;29;20432;-74
2021/08/20 04:36:11;;;;;;;7.03;4.60;;;15.90;99.90;;;;;;4954035;28;20448;-74
2021/08/20 04:38:39;;;;;;;6.80;4.83;;;15.90;99.90;;;;;;4954485;28;20438;-75
2021/08/20 04:41:07;;;;;;;6.93;3.70;;;15.90;99.90;;;;;;4971973;28;20488;-74
2021/08/20 04:43:35;;;;;;;5.10;4.50;;;15.90;99.90;;;;;;4967862;28;20443;-74
2021/08/20 04:46:02;;;;;;;5.33;4.57;;;15.90;99.90;;;;;;4975607;28;20464;-74
2021/08/20 04:48:30;;;;;;;4.83;4.33;;;15.90;99.90;;;;;;4969978;28;20434;-74
2021/08/20 04:50:58;;;;;;;6.10;5.50;;;15.90;99.90;;;;;;4958384;28;20436;-75
2021/08/20 04:53:30;;;;;;;5.63;4.80;;;15.90;99.90;;;;;;4955216;28;20481;-74
2021/08/20 04:56:00;;;;;;;6.63;4.73;;;16.00;99.90;;;;;;4953669;29;20442;-74
2021/08/20 04:58:27;;;;;;;6.73;4.80;;;16.00;99.90;;;;;;4953826;29;20442;-74
2021/08/20 05:00:54;;;;;;;6.20;5.47;;;16.00;99.90;;;;;;4953872;28;20581;-74
2021/08/20 05:03:21;;;;;;;5.90;4.27;;;16.00;99.90;;;;;;4973279;28;20464;-74
2021/08/20 05:05:49;;;;;;;5.87;5.20;;;16.00;99.90;;;;;;4974787;28;20413;-74
2021/08/20 05:08:16;;;;;;;7.83;5.33;;;16.00;99.90;;;;;;4975091;28;20441;-74
2021/08/20 05:10:44;;;;;;;6.20;5.30;;;16.00;99.90;;;;;;4969492;28;20486;-74
2021/08/20 05:13:11;;;;;;;5.50;5.00;;;16.10;99.90;;;;;;4959163;28;20448;-73
2021/08/20 05:15:38;;;;;;;6.30;5.20;;;16.10;99.90;;;;;;4969309;28;20421;-74
2021/08/20 05:18:05;;;;;;;6.00;5.20;;;16.10;99.90;;;;;;4972446;28;20464;-74
2021/08/20 05:20:32;;;;;;;6.17;5.57;;;16.20;99.90;;;;;;4972722;28;20503;-74
2021/08/20 05:22:59;;;;;;;6.30;5.70;;;16.20;99.90;;;;;;4973124;28;20453;-74
2021/08/20 05:25:27;;;;;;;6.00;5.33;;;16.30;99.90;;;;;;4974406;28;20427;-73
2021/08/20 05:27:56;;;;;;;5.67;5.07;;;16.30;99.90;;;;;;4974823;28;20780;-75
2021/08/20 05:30:23;;;;;;;6.03;5.10;;;16.40;99.90;;;;;;4974639;28;20477;-74
2021/08/20 05:32:49;;;;;;;5.87;5.10;;;16.50;99.90;;;;;;4968718;28;20415;-75
2021/08/20 05:35:17;;;;;;;5.60;5.10;;;16.50;99.90;;;;;;4959168;28;20440;-75
2021/08/20 05:37:44;;;;;;;6.90;5.47;;;16.50;99.90;;;;;;4954261;28;20455;-75
2021/08/20 05:40:13;;;;;;;7.47;6.60;;;16.60;99.90;;;;;;4951834;29;20474;-75
2021/08/20 05:42:40;;;;;;;6.43;5.73;;;16.60;99.90;;;;;;4951818;28;20455;-74
2021/08/20 05:45:10;;;;;;;7.20;6.07;;;16.70;99.90;;;;;;4957864;28;20438;-75
2021/08/20 05:47:37;;;;;;;7.23;6.10;;;16.70;99.90;;;;;;4963499;28;20443;-75
2021/08/20 05:50:05;;;;;;;7.57;6.00;;;16.80;99.90;;;;;;4958363;28;20943;-75
2021/08/20 05:52:34;;;;;;;8.23;5.60;;;16.80;99.90;;;;;;4970581;28;20419;-75
2021/08/20 05:55:01;;;;;;;6.53;5.20;;;16.90;99.90;;;;;;4972243;28;20520;-76
2021/08/20 05:57:28;;;;;;;5.90;5.30;;;16.90;99.90;;;;;;4972182;28;20765;-75
2021/08/20 05:59:55;;;;;;;8.30;6.00;;;17.00;99.90;;;;;;4958828;28;20435;-74
2021/08/20 06:02:23;;;;;;;5.90;5.17;;;17.00;99.90;;;;;;4973963;28;20451;-75
2021/08/20 06:04:50;;;;;;;5.87;4.97;;;17.10;99.90;;;;;;4974424;28;20418;-74
2021/08/20 06:07:17;;;;;;;5.70;5.10;;;17.10;99.90;;;;;;4974282;28;20509;-74
2021/08/20 06:09:44;;;;;;;6.20;5.40;;;17.20;99.90;;;;;;4963283;28;20499;-73
2021/08/20 06:12:11;;;;;;;6.77;5.67;;;17.30;99.90;;;;;;4958101;28;20436;-74
2021/08/20 06:14:38;;;;;;;5.70;5.20;;;17.30;99.90;;;;;;4971667;28;20449;-74
2021/08/20 06:17:05;;;;;;;8.27;5.90;;;17.40;99.90;;;;;;4972230;28;20474;-74
2021/08/20 06:19:33;;;;;;;8.67;5.70;;;17.50;99.90;;;;;;4974982;28;20476;-75
2021/08/20 06:22:07;;;;;;;7.20;5.57;;;17.60;99.90;;;;;;4969814;28;20499;-73
2021/08/20 06:24:34;;;;;;;7.27;6.57;;;17.60;99.90;;;;;;4977902;28;20448;-74
2021/08/20 06:27:01;;;;;;;8.07;6.60;;;17.80;99.90;;;;;;4977860;28;20444;-74
2021/08/20 06:29:28;;;;;;;6.50;5.90;;;17.90;99.90;;;;;;4978054;28;20544;-76
2021/08/20 06:31:55;;;;;;;8.20;6.60;;;18.00;99.90;;;;;;4969201;28;20456;-77
2021/08/20 06:34:21;;;;;;;9.67;6.80;;;18.10;99.90;;;;;;4962064;28;20822;-76
2021/08/20 06:36:50;;;;;;;6.90;5.90;;;18.10;99.90;;;;;;4963837;28;20441;-76
2021/08/20 06:39:17;;;;;;;6.90;6.20;;;18.30;99.90;;;;;;4956017;28;20468;-76
2021/08/20 06:41:44;;;;;;;7.30;6.07;;;18.30;99.90;;;;;;4956126;29;20493;-74
2021/08/20 06:44:11;;;;;;;5.20;4.70;;;18.50;99.90;;;;;;4956304;28;20448;-74
2021/08/20 06:46:37;;;;;;;5.90;5.40;;;18.60;99.90;;;;;;4958209;28;20448;-74
2021/08/20 06:49:05;;;;;;;5.90;4.90;;;18.70;99.90;;;;;;4957800;29;20442;-74
2021/08/20 06:51:32;;;;;;;4.90;4.40;;;18.80;99.90;;;;;;4941071;29;20480;-74
2021/08/20 06:54:02;;;;;;;7.10;5.40;;;18.90;99.90;;;;;;4959127;28;20768;-74
2021/08/20 06:56:29;;;;;;;6.23;5.37;;;19.00;99.90;;;;;;4944644;28;20754;-73
2021/08/20 06:58:57;;;;;;;4.90;4.30;;;19.10;99.90;;;;;;4972617;28;20868;-74
2021/08/20 07:01:24;;;;;;;5.90;5.30;;;19.20;99.90;;;;;;4974946;28;20506;-75
2021/08/20 07:03:51;;;;;;;5.47;4.97;;;19.30;99.90;;;;;;4966828;28;20445;-75
2021/08/20 07:06:20;;;;;;;5.40;4.90;;;19.40;99.90;;;;;;4955731;28;20442;-73
2021/08/20 07:08:47;;;;;;;5.43;4.50;;;19.40;99.90;;;;;;4959054;28;20519;-73
2021/08/20 07:11:16;;;;;;;6.00;5.40;;;19.50;99.90;;;;;;4961480;28;20511;-73
2021/08/20 07:13:43;;;;;;;5.67;5.03;;;19.50;99.90;;;;;;4955961;28;20453;-73
2021/08/20 07:16:10;;;;;;;8.80;6.80;;;19.50;99.90;;;;;;4955373;28;20442;-73
2021/08/20 07:18:37;;;;;;;6.80;5.80;;;19.50;99.90;;;;;;4955484;29;20461;-74
2021/08/20 07:21:04;;;;;;;5.60;4.63;;;19.50;99.90;;;;;;4957250;28;20592;-73
2021/08/20 07:23:32;;;;;;;6.20;4.67;;;19.60;99.90;;;;;;4973395;28;20437;-74
2021/08/20 07:26:01;;;;;;;5.00;4.50;;;19.60;99.90;;;;;;4933720;28;20449;-74
2021/08/20 07:28:29;;;;;;;6.33;4.70;;;19.60;99.90;;;;;;4946241;28;20465;-74
2021/08/20 07:30:57;;;;;;;7.53;4.50;;;19.60;99.90;;;;;;4943009;28;20789;-74
2021/08/20 07:33:24;;;;;;;5.93;5.33;;;19.70;99.90;;;;;;4965142;28;20468;-74
2021/08/20 07:35:52;;;;;;;6.13;5.53;;;19.70;99.90;;;;;;4974742;28;20441;-74
2021/08/20 07:38:19;;;;;;;5.43;4.40;;;19.70;99.90;;;;;;4971669;28;20461;-74
2021/08/20 07:40:46;;;;;;;7.33;5.33;;;19.80;99.90;;;;;;4973136;28;20487;-74
2021/08/20 07:43:13;;;;;;;5.70;5.20;;;19.80;99.90;;;;;;4966007;28;20465;-74
2021/08/20 07:45:42;;;;;;;5.80;5.20;;;19.80;99.90;;;;;;4972331;28;20532;-74
2021/08/20 07:48:12;;;;;;;6.43;5.37;;;19.90;99.90;;;;;;4958179;28;20944;-74
2021/08/20 07:50:40;;;;;;;5.33;4.83;;;19.90;99.90;;;;;;4959307;28;20463;-74
2021/08/20 07:53:07;;;;;;;5.37;4.47;;;19.90;99.90;;;;;;4953093;28;20469;-74
2021/08/20 07:55:34;;;;;;;5.30;4.70;;;19.90;99.90;;;;;;4954709;28;20442;-74
2021/08/20 07:58:01;;;;;;;6.03;5.23;;;19.90;99.90;;;;;;4954768;29;20445;-74
2021/08/20 08:00:30;;;;;;;5.33;4.77;;;19.90;99.90;;;;;;4960110;28;20457;-74
2021/08/20 08:03:00;;;;;;;4.80;4.40;;;20.00;99.90;;;;;;4974952;28;20452;-74
2021/08/20 08:05:27;;;;;;;6.17;4.50;;;20.00;99.90;;;;;;4975623;28;20496;-74
2021/08/20 08:07:56;;;;;;;5.13;4.63;;;20.00;99.90;;;;;;4976006;28;20973;-74
2021/08/20 08:10:24;;;;;;;7.80;5.00;;;20.00;99.90;;;;;;4966463;28;20454;-73
2021/08/20 08:12:51;;;;;;;4.90;4.40;;;20.00;99.90;;;;;;4958986;28;20439;-74
2021/08/20 08:15:18;;;;;;;6.90;4.80;;;20.10;99.90;;;;;;4973101;28;20447;-74
2021/08/20 08:17:45;;;;;;;5.07;4.43;;;20.10;99.90;;;;;;4973674;28;20799;-75
2021/08/20 08:20:16;;;;;;;6.40;5.10;;;20.10;99.90;;;;;;4972025;28;20471;-75
2021/08/20 08:22:44;;;;;;;6.37;4.90;;;20.10;99.90;;;;;;4972800;28;20494;-75
2021/08/20 08:25:12;;;;;;;7.33;5.43;;;20.10;99.90;;;;;;4962631;28;20551;-75
2021/08/20 08:27:48;;;;;;;5.03;4.20;;;20.10;99.90;;;;;;4955057;29;20454;-75
2021/08/20 08:30:15;;;;;;;5.47;4.60;;;20.10;99.90;;;;;;4955249;28;20496;-75
2021/08/20 08:32:42;;;;;;;4.00;3.70;;;20.20;99.90;;;;;;4958371;28;20442;-75
2021/08/20 08:35:10;;;;;;;5.70;4.33;;;20.30;99.90;;;;;;4960223;28;20440;-75
2021/08/20 08:37:38;;;;;;;6.10;4.93;;;20.30;99.90;;;;;;4953890;28;20486;-75
2021/08/20 08:40:06;;;;;;;7.37;4.70;;;20.40;99.90;;;;;;4958798;28;20461;-75
2021/08/20 08:42:33;;;;;;;5.80;5.00;;;20.40;99.90;;;;;;4972371;28;20497;-74
2021/08/20 08:45:00;;;;;;;4.93;4.53;;;20.40;99.90;;;;;;4973323;28;20444;-75
2021/08/20 08:47:31;;;;;;;5.60;5.00;;;20.50;99.90;;;;;;4975443;28;20927;-75
2021/08/20 08:49:59;;;;;;;4.40;4.00;;;20.60;99.90;;;;;;4968425;28;20476;-75
2021/08/20 08:52:26;;;;;;;5.90;4.57;;;20.70;99.90;;;;;;4956083;28;20457;-75
2021/08/20 08:54:54;;;;;;;6.70;6.00;;;20.80;99.90;;;;;;4957477;28;20438;-74
2021/08/20 08:57:21;;;;;;;6.67;6.03;;;20.90;99.90;;;;;;4959673;28;20457;-74
2021/08/20 08:59:48;;;;;;;8.40;5.87;;;20.90;99.90;;;;;;4954150;28;20798;-74
2021/08/20 09:02:20;;;;;;;7.03;6.20;;;21.00;99.90;;;;;;4953479;28;20512;-75
2021/08/20 09:04:54;;;;;;;6.40;5.47;;;21.10;99.90;;;;;;4953772;28;20460;-74
2021/08/20 09:07:22;;;;;;;6.00;5.27;;;21.10;99.90;;;;;;4956437;28;24913;-76
2021/08/20 09:10:11;;;;;;;6.50;5.90;;;21.20;99.90;;;;;;4975178;28;20930;-74
2021/08/20 09:12:38;;;;;;;6.80;5.70;;;21.20;99.90;;;;;;4957869;28;20448;-74
2021/08/20 09:15:06;;;;;;;7.23;6.53;;;21.30;99.90;;;;;;4940678;29;20943;-75
2021/08/20 09:17:35;;;;;;;8.07;7.27;;;21.30;99.90;;;;;;4963385;28;20999;-73
2021/08/20 09:20:15;;;;;;;7.60;6.80;;;21.30;99.90;;;;;;4959180;28;20462;-73
2021/08/20 09:22:42;;;;;;;7.27;6.57;;;21.30;99.90;;;;;;4952611;28;20485;-73
2021/08/20 09:25:27;;;;;;;7.07;6.47;;;21.30;99.90;;;;;;4953464;28;20449;-74
2021/08/20 09:28:09;;;;;;;7.73;7.03;;;21.20;99.90;;;;;;4951257;28;20433;-74
2021/08/20 09:30:36;;;;;;;9.40;6.30;;;21.10;99.90;;;;;;4967840;28;20464;-75
2021/08/20 09:33:09;;;;;;;7.30;6.63;;;21.10;99.90;;;;;;4969539;28;20437;-75
2021/08/20 09:35:36;;;;;;;6.40;5.80;;;21.00;99.90;;;;;;4940599;28;20792;-75
2021/08/20 09:38:08;;;;;;;6.77;6.17;;;20.90;99.90;;;;;;4959033;28;20433;-74
2021/08/20 09:40:36;;;;;;;6.87;6.20;;;20.80;99.90;;;;;;4954293;28;20462;-74
2021/08/20 09:43:19;;;;;;;6.53;5.93;;;20.70;99.90;;;;;;4971813;28;20495;-75
2021/08/20 09:45:59;;;;;;;6.20;5.60;;;20.70;99.90;;;;;;4972506;28;20448;-75
2021/08/20 09:48:42;;;;;;;6.90;6.20;;;20.60;99.90;;;;;;4955942;28;20455;-76
2021/08/20 09:51:10;;;;;;;5.33;4.83;;;20.60;99.90;;;;;;4927978;28;20482;-73
2021/08/20 09:53:37;;;;;;;6.87;5.50;;;20.70;99.90;;;;;;4960876;28;20448;-74
2021/08/20 09:56:07;;;;;;;5.97;4.70;;;20.70;99.90;;;;;;4960486;28;20448;-74
2021/08/20 09:58:34;;;;;;;5.70;5.20;;;20.80;99.90;;;;;;4969703;28;20437;-73
2021/08/20 10:01:02;;;;;;;4.90;4.50;;;20.80;99.90;;;;;;4945097;28;20458;-74
2021/08/20 10:03:31;;;;;;;4.30;3.90;;;20.90;99.90;;;;;;4975234;28;20437;-74
2021/08/20 10:06:00;;;;;;;6.53;5.77;;;20.90;99.90;;;;;;4976110;28;20445;-74
2021/08/20 10:08:30;;;;;;;5.90;5.40;;;20.90;99.90;;;;;;4976215;28;20440;-74
2021/08/20 10:10:58;;;;;;;5.80;5.30;;;20.80;99.90;;;;;;4976251;28;20514;-74
2021/08/20 10:13:28;;;;;;;6.70;6.10;;;20.80;99.90;;;;;;4978173;28;20448;-74
2021/08/20 10:16:00;;;;;;;5.77;5.30;;;20.80;99.90;;;;;;4961090;28;20448;-74
2021/08/20 10:18:27;;;;;;;4.37;4.03;;;20.90;99.90;;;;;;4978324;28;20437;-74
2021/08/20 10:20:54;;;;;;;4.40;4.03;;;20.90;99.90;;;;;;4969918;28;21041;-74
2021/08/20 10:23:21;;;;;;;5.87;4.00;;;21.00;99.90;;;;;;4962158;28;20488;-74
2021/08/20 10:25:48;;;;;;;3.60;3.30;;;21.10;99.90;;;;;;4957023;28;20437;-74
2021/08/20 10:28:16;;;;;;;9.00;3.40;;;21.10;99.90;;;;;;4956279;29;20804;-74
2021/08/20 10:30:46;;;;;;;4.60;2.53;;;21.10;99.90;;;;;;4945071;28;20967;-74
2021/08/20 10:33:13;;;;;;;2.40;2.20;;;21.10;99.90;;;;;;4974114;28;20453;-73
2021/08/20 10:35:55;;;;;;;2.73;2.20;;;21.20;99.90;;;;;;4973044;28;20857;-74
2021/08/20 10:38:25;;;;;;;2.33;1.60;;;21.30;99.90;;;;;;4948998;29;20454;-74
2021/08/20 10:41:07;;;;;;;2.00;1.67;;;21.40;99.90;;;;;;4967362;28;20555;-74
2021/08/20 10:43:50;;;;;;;1.57;1.30;;;21.40;99.90;;;;;;4959656;28;20461;-73
2021/08/20 10:46:47;;;;;;;1.80;1.07;;;21.50;99.90;;;;;;4963383;28;20931;-73
2021/08/20 10:49:20;;;;;;;1.30;1.20;;;21.50;99.90;;;;;;4974578;28;20438;-73
2021/08/20 10:52:02;;;;;;;1.20;1.10;;;21.60;99.90;;;;;;4973419;28;20472;-73
2021/08/20 10:54:59;;;;;;;1.27;1.00;;;21.60;99.90;;;;;;4974371;28;20531;-73
2021/08/20 10:57:55;;;;;;;2.83;1.30;;;21.70;99.90;;;;;;4973274;28;20457;-73
2021/08/20 11:00:25;;;;;;;1.50;1.03;;;21.80;99.90;;;;;;4960473;28;20453;-74
2021/08/20 11:02:53;;;;;;;1.10;1.00;;;21.80;99.90;;;;;;4957430;28;20488;-74
2021/08/20 11:05:37;;;;;;;1.07;0.97;;;21.90;99.90;;;;;;4962916;28;20448;-73
2021/08/20 11:08:28;;;;;;;2.07;1.23;;;22.00;99.90;;;;;;4975013;28;20433;-72
2021/08/20 11:10:56;;;;;;;1.30;1.13;;;22.10;99.90;;;;;;4974376;28;20480;-73
2021/08/20 11:13:23;;;;;;;1.37;1.27;;;22.10;99.90;;;;;;4976123;28;20457;-73
2021/08/20 11:15:51;;;;;;;2.43;1.07;;;22.30;99.90;;;;;;4962880;28;20875;-73
2021/08/20 11:18:40;;;;;;;1.63;1.43;;;22.30;99.90;;;;;;4958385;28;20444;-73
2021/08/20 11:21:08;;;;;;;1.40;1.20;;;22.30;99.90;;;;;;4973278;28;20844;-73
2021/08/20 11:23:35;;;;;;;1.60;1.50;;;22.40;99.90;;;;;;4974728;28;20494;-72
2021/08/20 11:26:04;;;;;;;2.00;1.60;;;22.40;99.90;;;;;;4975190;28;20439;-73
2021/08/20 11:28:33;;;;;;;2.93;1.50;;;22.50;99.90;;;;;;4975022;28;20527;-73
2021/08/20 11:31:03;;;;;;;1.83;1.63;;;22.50;99.90;;;;;;4969360;28;20460;-73
2021/08/20 11:33:31;;;;;;;2.00;1.73;;;22.60;99.90;;;;;;4956776;28;20838;-73
2021/08/20 11:36:01;;;;;;;1.33;1.23;;;22.70;99.90;;;;;;4962232;28;20437;-73
2021/08/20 11:38:33;;;;;;;1.30;1.13;;;22.80;99.90;;;;;;4970172;28;20445;-74
2021/08/20 11:41:04;;;;;;;1.60;1.50;;;22.80;99.90;;;;;;4971032;28;20464;-74
2021/08/20 11:43:32;;;;;;;2.00;1.60;;;22.90;99.90;;;;;;4970842;28;20845;-74
2021/08/20 11:46:02;;;;;;;1.40;1.30;;;22.90;99.90;;;;;;4954338;28;20461;-72
2021/08/20 11:48:31;;;;;;;1.40;1.30;;;22.90;99.90;;;;;;4972943;28;20460;-74
2021/08/20 11:51:00;;;;;;;1.23;1.13;;;22.90;99.90;;;;;;4972330;28;20832;-73
2021/08/20 11:53:27;;;;;;;1.93;1.53;;;22.90;99.90;;;;;;4972746;28;20450;-73
2021/08/20 11:56:12;;;;;;;1.50;1.40;;;22.90;99.90;;;;;;4957761;28;20445;-75
2021/08/20 11:58:39;;;;;;;1.87;1.47;;;23.00;99.90;;;;;;4948296;28;20459;-73
2021/08/20 12:01:06;;;;;;;1.60;1.50;;;23.00;99.90;;;;;;4953660;28;20465;-72
2021/08/20 12:03:35;;;;;;;2.43;1.60;;;23.00;99.90;;;;;;4970641;28;20498;-73
2021/08/20 12:06:10;;;;;;;2.40;1.50;;;23.00;99.90;;;;;;4970862;28;20875;-71
2021/08/20 12:08:38;;;;;;;1.93;1.83;;;23.10;99.90;;;;;;4953860;28;20825;-72
2021/08/20 12:11:06;;;;;;;5.50;1.97;;;23.10;99.90;;;;;;4955320;28;20469;-75
2021/08/20 12:13:44;;;;;;;1.97;1.70;;;23.20;99.90;;;;;;4972629;28;20452;-72
2021/08/20 12:16:11;;;;;;;3.37;1.67;;;23.20;99.90;;;;;;4971629;28;20451;-74
2021/08/20 12:18:43;;;;;;;2.30;1.73;;;23.20;99.90;;;;;;4940270;28;20429;-72
2021/08/20 12:21:15;;;;;;;1.57;1.47;;;23.30;99.90;;;;;;4945914;28;20583;-73
2021/08/20 12:23:57;;;;;;;2.47;2.20;;;23.30;99.90;;;;;;4956624;28;20842;-74
2021/08/20 12:26:24;;;;;;;2.10;1.80;;;23.40;99.90;;;;;;4973061;28;20455;-74
2021/08/20 12:28:52;;;;;;;2.57;1.80;;;23.40;99.90;;;;;;4973105;28;20783;-73
2021/08/20 12:31:22;;;;;;;2.00;1.50;;;23.40;99.90;;;;;;4957128;28;20858;-74
2021/08/20 12:34:05;;;;;;;3.03;2.03;;;23.50;99.90;;;;;;4958723;28;20449;-74
2021/08/20 12:36:32;;;;;;;4.50;1.90;;;23.60;99.90;;;;;;4960780;28;20957;-74
2021/08/20 12:39:14;;;;;;;3.23;2.00;;;23.60;99.90;;;;;;4972287;28;20456;-73
2021/08/20 12:41:43;;;;;;;1.47;1.37;;;23.70;99.90;;;;;;4944777;28;20461;-73
2021/08/20 12:44:11;;;;;;;2.17;1.70;;;23.60;99.90;;;;;;4955339;28;20457;-73
2021/08/20 12:46:41;;;;;;;2.20;1.90;;;23.70;99.90;;;;;;4953981;28;20943;-73
2021/08/20 12:49:10;;;;;;;1.93;1.50;;;23.70;99.90;;;;;;4954199;28;20453;-73
2021/08/20 12:51:39;;;;;;;1.90;1.60;;;23.70;99.90;;;;;;4922080;29;20465;-74
2021/08/20 12:54:07;;;;;;;2.67;1.87;;;23.70;99.90;;;;;;4955817;28;20465;-73